Powered by GoogleTranslate

Occupational Safety and Health Administration OSHA

Alert: Due to routine maintenance on the OSHA website, some pages may be temporarily unavailable.
To report an emergency, file a complaint with OSHA or ask a safety and health question, call 1-800-321-6742 (OSHA).

Accident Search Results

Description, Abstract, KeywordSICNAICSDate RangeOfficeInsp Nr
Keyword: "Plastic Mfg"AllAllAllAllAll

By Date

Results 41 - 60 of 205
Result Page: 1 2 3 4 5 6 7 8 9 10
  # Summary Nr Event Date Report ID Fat SIC Event Description
41 202552550 10/14/2010 0950631   3069 Employee Sustains Fractures To His Arm When Caught In Dies
42 202552352 08/18/2010 0950631   2821 Worker Is Burned When Spilled Alcohol Ignites
43 201509890 08/16/2010 0950614   3089 Employee Amputates Hand And Fingers On Router
44 202568572 05/06/2010 0452110 X 2672 Employee Receives Static Electric Shock, Later Dies
45 200625739 04/12/2010 0454725 X 3088 Cardiovascular And Respiratory Failure Kills Worker On Job
46 202613212 04/01/2010 0950633   3089 Employee Amputates Finger In Skil Drill
47 202609020 02/23/2010 0950633   3086 Employee Is Burned When Extruded Polystyrene Ignites
48 202600268 02/19/2010 0950612   3087 Worker Crushes Fingers On Forklift Truck
49 201614617 01/16/2010 1054113   3082 Employee'S Hand Is Injured In Extruded Plastics Puller
50 202519468 06/28/2009 0950624 X 5162 Employee Breaks Arm In Plastic Film Roller Machine
51 202549853 03/20/2009 0950631 X 3052 Two Employees Are Killed When Hot Water Tank Explodes
52 200357929 03/06/2009 0453710   3089 Employee'S Right Arm Caught In Plastic Roll
53 202549770 09/25/2008 0950631   3089 Employee Lacerates Arm While Cutting Plastic
54 200357267 08/29/2008 0453710   3085 Employee'S Hand Is Burned By Molten Plastic
55 202466769 05/09/2008 0950643   3088 Employee Amputates Finger On Radial Arm Saw
56 202528816 03/07/2008 0950635   3499 Hot Plastic Splashes Onto And Burns Employee
57 202448379 02/18/2008 0950633   3089 Worker Sustains Partial Amputation Of Finger
58 202448304 12/17/2007 0950633   2673 Employee Is Injured When Arm Is Caught In Winder Bar
59 202447793 10/16/2007 0950633   2673 Employee'S Finger Is Amputated When Caught Between Molds
60 201637147 08/22/2007 1054112   3089 Employee Amputates Fingers Operating Press Machine

Thank You for Visiting Our Website

You are exiting the Department of Labor's Web server.

The Department of Labor does not endorse, takes no responsibility for, and exercises no control over the linked organization or its views, or contents, nor does it vouch for the accuracy or accessibility of the information contained on the destination server. The Department of Labor also cannot authorize the use of copyrighted materials contained in linked Web sites. Users must request such authorization from the sponsor of the linked Web site. Thank you for visiting our site. Please click the button below to continue.

Close